Saguache, CO

3:44 AM MST on December 15, 2017 (GMT -0700)
Saguache

Weather History for K04V - November, 2012

Change the Weather History Date:

Thursday, November 22, 2012

  Actual Average (KALS) Record (KALS)
Temperature  
Mean Temperature 38 °F -  
Max Temperature 55 °F 43 °F 64 °F (1998)
Min Temperature 21 °F 9 °F -24 °F (1957)
Degree Days  
Heating Degree Days 27    
Moisture  
Dew Point 11 °F    
Average Humidity 37    
Maximum Humidity 63    
Minimum Humidity 18    
Precipitation  
Precipitation 0.00 in - - ()
Sea Level Pressure  
Sea Level Pressure 30.28 in    
Wind  
Wind Speed 7 mph (NW)    
Max Wind Speed 17 mph    
Max Gust Speed 16 mph    
Visibility 10 miles    
Events      
Averages and records for this station are not official NWS values.
T = Trace of Precipitation, MM = Missing Value Source: NWS Daily Summary

Daily Weather History Graph

Daily Weather History Graph

Search for Another Location

Airport or City:

Trip Planner

Search our weather history database for the weather conditions in past years. The results will help you decide how hot, cold, wet, or windy it might be!

Date:

Astronomy

Nov. 22, 2012 Rise Set
Actual Time 6:53 AM MST 4:48 PM MST
Civil Twilight 6:25 AM MST 5:16 PM MST
Nautical Twilight 5:52 AM MST 5:48 PM MST
Astronomical Twilight 5:21 AM MST 6:20 PM MST
Moon 1:30 PM MST (11/22) 1:20 AM MST (11/22)
Length of Visible Light 10h 51m
Length of Day
9h 54m
Waxing Gibbous, 72% of the Moon is Illuminated
Nov 22
Waxing Gibbous
Nov 28
Full
Dec 6
Last Quarter
Dec 13
New
Dec 19
First Quarter

Hourly Weather History & Observations

Time (MST) Temp. Windchill Dew Point Humidity Pressure Visibility Wind Dir Wind Speed Gust Speed Precip Events Conditions
12:15 AM 30.2 °F 22.6 °F 12.2 °F 47% 30.17 in 10.0 mi NNW 8.1 mph - N/A   Clear
12:35 AM 24.8 °F 16.1 °F 10.4 °F 54% 30.17 in 10.0 mi NNW 8.1 mph - N/A   Clear
12:55 AM 24.8 °F 12.9 °F 12.2 °F 59% 30.17 in 10.0 mi NW 13.8 mph - N/A   Clear
1:15 AM 24.8 °F 16.9 °F 12.2 °F 59% 30.18 in 10.0 mi North 6.9 mph - N/A   Clear
1:34 AM 23.0 °F - 10.4 °F 59% 30.18 in 10.0 mi Calm Calm - N/A   Clear
1:55 AM 23.0 °F 17.0 °F 12.2 °F 63% 30.19 in 10.0 mi NNE 4.6 mph - N/A   Clear
2:15 AM 23.0 °F 13.9 °F 10.4 °F 59% 30.19 in 10.0 mi NNW 8.1 mph - N/A   Clear
2:35 AM 23.0 °F 13.9 °F 10.4 °F 59% 30.19 in 10.0 mi NNW 8.1 mph - N/A   Clear
2:54 AM 24.8 °F 16.9 °F 10.4 °F 54% 30.19 in 10.0 mi NNW 6.9 mph - N/A   Clear
3:15 AM 24.8 °F 20.5 °F 10.4 °F 54% 30.19 in 10.0 mi WNW 3.5 mph - N/A   Clear
3:35 AM 23.0 °F 17.0 °F 10.4 °F 59% 30.19 in 10.0 mi NNW 4.6 mph - N/A   Clear
3:55 AM 23.0 °F 18.4 °F 10.4 °F 59% 30.19 in 10.0 mi NNW 3.5 mph - N/A   Clear
4:15 AM 24.8 °F - 10.4 °F 54% 30.19 in 10.0 mi Calm Calm - N/A   Clear
4:34 AM 26.6 °F - 10.4 °F 51% 30.19 in 10.0 mi Calm Calm - N/A   Clear
4:55 AM 23.0 °F 18.4 °F 8.6 °F 54% 30.20 in 10.0 mi North 3.5 mph - N/A   Clear
5:14 AM 23.0 °F 17.0 °F 10.4 °F 59% 30.21 in 10.0 mi North 4.6 mph - N/A   Clear
5:35 AM 23.0 °F - 10.4 °F 59% 30.21 in 10.0 mi Calm Calm - N/A   Clear
5:55 AM 26.6 °F - 10.4 °F 51% 30.22 in 10.0 mi Calm Calm - N/A   Clear
6:15 AM 21.2 °F 13.6 °F 8.6 °F 58% 30.23 in 10.0 mi North 5.8 mph - N/A   Clear
6:35 AM 23.0 °F - 10.4 °F 59% 30.23 in 10.0 mi Calm Calm - N/A   Clear
6:55 AM 23.0 °F 13.9 °F 12.2 °F 63% 30.24 in 10.0 mi NNW 8.1 mph - N/A   Clear
7:15 AM 21.2 °F 12.6 °F 10.4 °F 63% 30.24 in 10.0 mi NNW 6.9 mph - N/A   Clear
7:35 AM 24.8 °F 16.9 °F 12.2 °F 59% 30.26 in 10.0 mi NNW 6.9 mph - N/A   Clear
7:55 AM 30.2 °F - 15.8 °F 55% 30.27 in 10.0 mi Calm Calm - N/A   Clear
8:15 AM 33.8 °F 30.8 °F 14.0 °F 44% 30.28 in 10.0 mi NW 3.5 mph - N/A   Clear
8:35 AM 37.4 °F 34.9 °F 14.0 °F 38% 30.28 in 10.0 mi NNW 3.5 mph - N/A   Clear
8:55 AM 37.4 °F - 14.0 °F 38% 30.29 in 10.0 mi Calm Calm - N/A   Clear
9:15 AM 41.0 °F - 15.8 °F 36% 30.29 in 10.0 mi Calm Calm - N/A   Clear
9:35 AM 42.8 °F - 14.0 °F 31% 30.29 in 10.0 mi Calm Calm - N/A   Clear
9:55 AM 44.6 °F 42.2 °F 14.0 °F 29% 30.29 in 10.0 mi SSE 4.6 mph - N/A   Clear
10:15 AM 46.4 °F 44.3 °F 14.0 °F 27% 30.30 in 10.0 mi SE 4.6 mph - N/A   Clear
10:34 AM 46.4 °F 45.2 °F 14.0 °F 27% 30.29 in 10.0 mi South 3.5 mph - N/A   Clear
10:55 AM 50.0 °F - 15.8 °F 26% 30.29 in 10.0 mi South 5.8 mph - N/A   Clear
11:15 AM 51.8 °F - 15.8 °F 24% 30.28 in 10.0 mi SE 5.8 mph - N/A   Clear
11:34 AM 53.6 °F - 15.8 °F 22% 30.28 in 10.0 mi South 9.2 mph - N/A   Clear
11:55 AM 53.6 °F - 15.8 °F 22% 30.27 in 10.0 mi SSE 10.4 mph - N/A   Clear
12:15 PM 53.6 °F - 15.8 °F 22% 30.27 in 10.0 mi South 8.1 mph - N/A   Clear
12:35 PM 53.6 °F - 15.8 °F 22% 30.27 in 10.0 mi SE 9.2 mph - N/A   Clear
12:55 PM 53.6 °F - 14.0 °F 21% 30.26 in 10.0 mi South 9.2 mph - N/A   Clear
1:15 PM 53.6 °F - 14.0 °F 21% 30.26 in 10.0 mi South 10.4 mph - N/A   Clear
1:35 PM 53.6 °F - 14.0 °F 21% 30.26 in 10.0 mi SSE 9.2 mph - N/A   Clear
1:55 PM 53.6 °F - 12.2 °F 19% 30.26 in 10.0 mi South 12.7 mph - N/A   Clear
2:15 PM 55.4 °F - 12.2 °F 18% 30.28 in 10.0 mi South 11.5 mph - N/A   Clear
2:35 PM 53.6 °F - 10.4 °F 18% 30.27 in 10.0 mi South 10.4 mph 16.1 mph N/A   Clear
2:55 PM 53.6 °F - 10.4 °F 18% 30.27 in 10.0 mi South 8.1 mph - N/A   Clear
3:15 PM 53.6 °F - 10.4 °F 18% 30.28 in 10.0 mi South 6.9 mph - N/A   Clear
3:35 PM 53.6 °F - 10.4 °F 18% 30.29 in 10.0 mi South 8.1 mph - N/A   Clear
3:55 PM 53.6 °F - 10.4 °F 18% 30.29 in 10.0 mi South 6.9 mph - N/A   Clear
4:15 PM 53.6 °F - 12.2 °F 19% 30.31 in 10.0 mi South 5.8 mph - N/A   Clear
4:35 PM 48.2 °F - 10.4 °F 22% 30.31 in 10.0 mi ESE 3.5 mph - N/A   Clear
4:55 PM 42.8 °F 38.6 °F 10.4 °F 27% 30.31 in 10.0 mi SE 6.9 mph - N/A   Clear
5:15 PM 42.8 °F 38.6 °F 10.4 °F 27% 30.33 in 10.0 mi SE 6.9 mph - N/A   Clear
5:35 PM 42.8 °F 38.0 °F 10.4 °F 27% 30.33 in 10.0 mi ESE 8.1 mph - N/A   Clear
5:55 PM 41.0 °F 39.0 °F 10.4 °F 29% 30.34 in 10.0 mi NNE 3.5 mph - N/A   Clear
6:15 PM 37.4 °F - 10.4 °F 33% 30.34 in 10.0 mi Calm Calm - N/A   Clear
6:34 PM 37.4 °F 31.4 °F 12.2 °F 36% 30.36 in 10.0 mi NNW 8.1 mph - N/A   Clear
6:54 PM 37.4 °F 30.8 °F 12.2 °F 36% 30.36 in 10.0 mi North 9.2 mph - N/A   Clear
7:15 PM 37.4 °F 31.4 °F 12.2 °F 36% 30.37 in 10.0 mi NNW 8.1 mph - N/A   Clear
7:35 PM 37.4 °F 30.8 °F 10.4 °F 33% 30.38 in 10.0 mi NNW 9.2 mph - N/A   Clear
7:55 PM 35.6 °F 25.9 °F 10.4 °F 35% 30.38 in 10.0 mi NNW 16.1 mph - N/A   Clear
8:15 PM 37.4 °F 28.9 °F 10.4 °F 33% 30.38 in 10.0 mi NNW 13.8 mph - N/A   Clear
8:35 PM 39.2 °F 31.6 °F 6.8 °F 26% 30.39 in 10.0 mi NNW 12.7 mph - N/A   Clear
8:55 PM 37.4 °F 30.8 °F 6.8 °F 28% 30.39 in 10.0 mi North 9.2 mph - N/A   Clear
9:15 PM 37.4 °F 29.8 °F 8.6 °F 30% 30.40 in 10.0 mi North 11.5 mph - N/A   Clear
9:35 PM 37.4 °F 30.8 °F 6.8 °F 28% 30.40 in 10.0 mi NNW 9.2 mph - N/A   Clear
9:55 PM 39.2 °F 33.0 °F 6.8 °F 26% 30.40 in 10.0 mi NNW 9.2 mph - N/A   Clear
10:15 PM 37.4 °F 31.4 °F 6.8 °F 28% 30.40 in 10.0 mi NW 8.1 mph - N/A   Clear
10:34 PM 35.6 °F 28.6 °F 6.8 °F 30% 30.41 in 10.0 mi NW 9.2 mph - N/A   Clear
10:54 PM 37.4 °F 29.3 °F 8.6 °F 30% 30.41 in 10.0 mi WNW 12.7 mph - N/A   Clear
11:15 PM 33.8 °F 23.9 °F 8.6 °F 35% 30.41 in 10.0 mi WNW 15.0 mph - N/A   Clear
11:55 PM 33.8 °F 23.2 °F 10.4 °F 38% 30.41 in 10.0 mi NW 17.3 mph - N/A   Clear